createdAt,value
2022-11-17T00:05:08.483Z,4.65
2022-11-17T00:20:30.906Z,4.51
2022-11-17T00:35:34.580Z,4.13
2022-11-17T00:50:37.696Z,3.82
2022-11-17T01:05:40.817Z,3.63
2022-11-17T01:20:44.255Z,3.45
2022-11-17T01:35:47.631Z,3.17
2022-11-17T01:50:51.048Z,3.01
2022-11-17T02:06:09.950Z,2.86
2022-11-17T02:21:35.229Z,2.69
2022-11-17T02:36:50.897Z,2.65
2022-11-17T02:51:58.161Z,2.50
2022-11-17T03:07:01.331Z,2.61
2022-11-17T03:22:28.474Z,2.65
2022-11-17T03:37:35.945Z,2.51
2022-11-17T03:52:39.308Z,2.46
2022-11-17T04:07:45.184Z,2.41
2022-11-17T04:23:07.235Z,2.38
2022-11-17T04:38:12.627Z,2.38
2022-11-17T04:53:15.887Z,2.56
2022-11-17T05:08:19.036Z,2.67
2022-11-17T05:23:41.093Z,2.73
2022-11-17T05:38:44.453Z,2.66
2022-11-17T05:53:49.402Z,2.86
2022-11-17T06:08:52.667Z,2.93
2022-11-17T06:23:56.249Z,2.89
2022-11-17T06:38:59.607Z,2.81
2022-11-17T06:54:04.682Z,2.69
2022-11-17T07:09:11.571Z,2.66
2022-11-17T07:24:15.321Z,2.65
2022-11-17T07:39:21.522Z,2.76
2022-11-17T07:54:25.674Z,2.68
2022-11-17T08:09:29.510Z,2.77
2022-11-17T08:24:33.026Z,2.89
2022-11-17T08:39:36.385Z,3.08
2022-11-17T08:54:40.101Z,3.11
2022-11-17T09:09:44.348Z,3.20
2022-11-17T09:24:47.807Z,3.25
2022-11-17T09:39:51.525Z,3.20
2022-11-17T09:55:21.876Z,3.36
2022-11-17T10:10:35.286Z,3.54
2022-11-17T10:25:41.797Z,3.83
2022-11-17T10:40:45.740Z,4.40
2022-11-17T10:56:05.355Z,4.95
2022-11-17T11:11:19.618Z,5.71
2022-11-17T11:26:47.335Z,6.07
2022-11-17T11:42:22.610Z,7.18
2022-11-17T11:57:35.850Z,7.05
2022-11-17T12:12:40.994Z,8.44
2022-11-17T12:27:46.113Z,9.05
2022-11-17T12:43:28.086Z,9.90
2022-11-17T12:59:05.161Z,12.02
2022-11-17T13:14:14.420Z,16.60
2022-11-17T13:29:23.044Z,17.27
2022-11-17T13:44:28.688Z,15.79
2022-11-17T13:59:35.279Z,10.23
2022-11-17T14:14:38.895Z,8.04
2022-11-17T14:29:42.768Z,6.89
2022-11-17T14:44:46.805Z,6.10
2022-11-17T14:59:50.110Z,5.48
2022-11-17T15:14:53.969Z,4.71
2022-11-17T15:29:57.757Z,4.03
2022-11-17T15:45:01.327Z,3.66
2022-11-17T16:00:07.066Z,3.38
2022-11-17T16:15:11.132Z,3.09
2022-11-17T16:30:16.061Z,2.73
2022-11-17T16:45:20.185Z,2.42
2022-11-17T17:00:23.478Z,2.16
2022-11-17T17:15:26.922Z,2.03
2022-11-17T17:30:30.897Z,1.84
2022-11-17T17:45:38.124Z,1.43
2022-11-17T18:00:41.647Z,1.24
2022-11-17T18:15:45.445Z,1.19
2022-11-17T18:30:49.569Z,1.00
2022-11-17T18:45:53.223Z,0.76
2022-11-17T19:00:58.069Z,0.64
2022-11-17T19:16:22.809Z,0.51
2022-11-17T19:31:26.677Z,0.39
2022-11-17T19:46:31.931Z,0.24
2022-11-17T20:01:36.095Z,0.11
2022-11-17T20:16:39.683Z,-0.05
2022-11-17T20:31:43.102Z,-0.17
2022-11-17T20:46:46.658Z,-0.21
2022-11-17T21:01:50.821Z,-0.30
2022-11-17T21:16:57.847Z,-0.38
2022-11-17T21:32:01.220Z,-0.43
2022-11-17T21:47:04.468Z,-0.43
2022-11-17T22:02:10.245Z,-0.23
2022-11-17T22:17:14.027Z,0.03
2022-11-17T22:32:17.461Z,0.29
2022-11-17T22:47:20.696Z,0.32
2022-11-17T23:02:24.240Z,0.42
2022-11-17T23:17:27.838Z,0.44
2022-11-17T23:32:31.151Z,0.46
2022-11-17T23:47:34.982Z,0.54
